createdAt,value
2018-10-19T00:00:31.080Z,26.40
2018-10-19T00:06:00.368Z,25.37
2018-10-19T00:11:29.689Z,27.25
2018-10-19T00:17:01.079Z,27.60
2018-10-19T00:22:30.373Z,25.90
2018-10-19T00:27:59.686Z,28.00
2018-10-19T00:33:28.993Z,26.20
2018-10-19T00:38:58.396Z,28.38
2018-10-19T00:44:27.609Z,26.85
2018-10-19T00:49:58.205Z,25.95
2018-10-19T00:55:28.544Z,27.73
2018-10-19T01:00:57.784Z,28.38
2018-10-19T01:06:27.225Z,25.45
2018-10-19T01:11:56.600Z,28.35
2018-10-19T01:17:25.905Z,26.60
2018-10-19T01:22:56.350Z,25.08
2018-10-19T01:28:25.665Z,24.52
2018-10-19T01:33:55.041Z,26.50
2018-10-19T01:39:24.246Z,25.17
2018-10-19T01:44:54.540Z,26.33
2018-10-19T01:50:23.736Z,26.12
2018-10-19T01:55:53.141Z,24.63
2018-10-19T02:01:23.052Z,24.63
2018-10-19T02:06:52.344Z,26.10
2018-10-19T02:12:21.669Z,25.77
2018-10-19T02:17:52.112Z,25.37
2018-10-19T02:23:21.461Z,24.98
2018-10-19T02:28:50.911Z,25.45
2018-10-19T02:34:21.246Z,25.65
2018-10-19T02:39:50.620Z,24.02
2018-10-19T02:45:22.020Z,24.82
2018-10-19T02:50:51.280Z,24.67
2018-10-19T02:56:21.655Z,26.23
2018-10-19T03:01:50.920Z,26.90
2018-10-19T03:07:22.269Z,27.73
2018-10-19T03:12:51.888Z,26.48
2018-10-19T03:18:21.454Z,26.20
2018-10-19T03:23:50.817Z,27.00
2018-10-19T03:29:20.326Z,24.32
2018-10-19T03:34:49.683Z,26.75
2018-10-19T03:40:19.233Z,27.62
2018-10-19T03:45:48.632Z,28.05
2018-10-19T03:51:19.199Z,26.20
2018-10-19T03:56:48.446Z,26.23
2018-10-19T04:02:18.532Z,30.55
2018-10-19T04:07:48.767Z,30.75
2018-10-19T04:13:18.068Z,29.25
2018-10-19T04:18:48.533Z,27.48
2018-10-19T04:24:17.920Z,28.57
2018-10-19T04:29:47.356Z,28.60
2018-10-19T04:35:16.739Z,30.65
2018-10-19T04:40:46.656Z,28.73
2018-10-19T04:46:15.990Z,25.65
2018-10-19T04:51:47.233Z,25.17
2018-10-19T04:57:16.675Z,25.55
2018-10-19T05:02:46.115Z,24.30
2018-10-19T05:08:15.310Z,25.75
2018-10-19T05:13:45.578Z,26.62
2018-10-19T05:19:16.310Z,26.23
2018-10-19T05:24:45.819Z,46.83
2018-10-19T05:30:14.980Z,33.75
2018-10-19T05:35:44.227Z,29.82
2018-10-19T05:41:13.465Z,39.60
2018-10-19T05:46:42.689Z,41.55
2018-10-19T05:52:11.980Z,38.48
2018-10-19T05:57:41.139Z,39.67
2018-10-19T06:03:10.421Z,43.45
2018-10-19T06:08:39.769Z,44.40
2018-10-19T06:14:09.394Z,49.10
2018-10-19T06:19:38.780Z,54.77
2018-10-19T06:25:08.068Z,53.85
2018-10-19T06:30:37.338Z,45.90
2018-10-19T06:36:06.720Z,46.10
2018-10-19T06:41:36.051Z,46.08
2018-10-19T06:47:05.707Z,47.17
2018-10-19T06:52:35.012Z,45.12
2018-10-19T06:58:04.384Z,45.33
2018-10-19T07:03:33.732Z,46.48
2018-10-19T07:09:03.245Z,45.92
2018-10-19T07:14:32.580Z,46.45
2018-10-19T07:20:01.986Z,45.85
2018-10-19T07:25:31.288Z,42.70
2018-10-19T07:31:00.650Z,43.00
2018-10-19T07:36:30.004Z,44.03
2018-10-19T07:41:59.386Z,47.48
2018-10-19T07:47:28.799Z,43.33
2018-10-19T07:52:58.212Z,46.20
2018-10-19T07:58:27.534Z,44.65
2018-10-19T08:03:56.841Z,45.75
2018-10-19T08:09:26.293Z,50.98
2018-10-19T08:14:55.843Z,52.20
2018-10-19T08:20:27.236Z,56.10
2018-10-19T08:25:56.614Z,54.80
2018-10-19T08:31:25.963Z,64.47
2018-10-19T08:36:55.292Z,64.77
2018-10-19T08:42:24.533Z,60.05
2018-10-19T08:47:53.879Z,60.67
2018-10-19T08:53:23.366Z,63.10
2018-10-19T08:58:52.711Z,65.90
2018-10-19T09:04:22.092Z,68.42
2018-10-19T09:09:51.388Z,62.58
2018-10-19T09:15:20.803Z,63.68
2018-10-19T09:20:50.564Z,64.22
2018-10-19T09:26:19.917Z,62.62
2018-10-19T09:31:49.239Z,69.62
2018-10-19T09:37:18.603Z,66.15
2018-10-19T09:42:47.980Z,65.65
2018-10-19T09:48:23.193Z,62.65
2018-10-19T09:53:52.726Z,61.58
2018-10-19T09:59:22.046Z,61.50
2018-10-19T10:04:51.315Z,61.77
2018-10-19T10:10:20.636Z,58.90
2018-10-19T10:15:50.200Z,61.40
2018-10-19T10:21:19.572Z,62.23
2018-10-19T10:26:49.902Z,60.90
2018-10-19T10:32:19.403Z,63.40
2018-10-19T10:37:48.736Z,57.15
2018-10-19T10:43:18.039Z,60.30
2018-10-19T10:48:47.301Z,57.80
2018-10-19T10:54:16.642Z,55.38
2018-10-19T10:59:45.956Z,56.23
2018-10-19T11:05:15.409Z,54.95
2018-10-19T11:10:44.850Z,53.50
2018-10-19T11:16:14.577Z,52.93
2018-10-19T11:21:43.764Z,53.75
2018-10-19T11:27:13.092Z,52.95
2018-10-19T11:32:42.330Z,51.05
2018-10-19T11:38:11.557Z,57.05
2018-10-19T11:43:40.920Z,54.95
2018-10-19T11:49:10.219Z,55.90
2018-10-19T11:54:39.585Z,57.00
2018-10-19T12:00:09.525Z,55.92
2018-10-19T12:05:38.929Z,56.13
2018-10-19T12:11:08.358Z,62.75
2018-10-19T12:16:38.058Z,61.33
2018-10-19T12:22:07.590Z,60.67
2018-10-19T12:27:41.946Z,60.38
2018-10-19T12:33:12.915Z,60.63
2018-10-19T12:38:43.423Z,59.25
2018-10-19T12:44:13.862Z,59.27
2018-10-19T12:49:44.773Z,59.15
2018-10-19T12:55:14.316Z,60.05
2018-10-19T13:00:43.701Z,56.92
2018-10-19T13:06:13.349Z,59.15
2018-10-19T13:11:42.737Z,57.90
2018-10-19T13:17:12.336Z,58.23
2018-10-19T13:22:42.716Z,52.15
2018-10-19T13:28:12.824Z,52.53
2018-10-19T13:33:42.390Z,51.85
2018-10-19T13:39:13.152Z,55.73
2018-10-19T13:44:43.703Z,52.20
2018-10-19T13:50:13.023Z,50.23
2018-10-19T13:55:42.437Z,50.23
2018-10-19T14:01:11.862Z,46.35
2018-10-19T14:06:41.141Z,47.20
2018-10-19T14:12:10.454Z,42.27
2018-10-19T14:17:41.010Z,43.68
2018-10-19T14:23:10.412Z,42.53
2018-10-19T14:28:39.794Z,38.78
2018-10-19T14:34:09.112Z,39.78
2018-10-19T14:39:38.532Z,40.58
2018-10-19T14:45:09.076Z,38.90
2018-10-19T14:50:38.324Z,42.70
2018-10-19T14:56:07.615Z,41.92
2018-10-19T15:01:36.962Z,42.62
2018-10-19T15:07:09.277Z,45.55
2018-10-19T15:12:38.638Z,44.45
2018-10-19T15:18:08.418Z,44.65
2018-10-19T15:23:37.632Z,47.75
2018-10-19T15:29:09.004Z,51.45
2018-10-19T15:34:38.432Z,52.23
2018-10-19T15:40:09.760Z,48.87
2018-10-19T15:45:40.116Z,49.73
2018-10-19T15:51:10.700Z,52.70
2018-10-19T15:56:41.171Z,49.33
2018-10-19T16:02:10.400Z,51.80
2018-10-19T16:07:39.727Z,48.65
2018-10-19T16:13:09.017Z,50.08
2018-10-19T16:18:42.651Z,52.08
2018-10-19T16:24:12.214Z,52.27
2018-10-19T16:29:41.449Z,52.73
2018-10-19T16:35:10.734Z,54.40
2018-10-19T16:40:40.025Z,53.92
2018-10-19T16:46:09.330Z,54.13
2018-10-19T16:51:39.647Z,52.25
2018-10-19T16:57:09.103Z,51.05
2018-10-19T17:02:38.571Z,52.58
2018-10-19T17:08:08.013Z,52.85
2018-10-19T17:13:37.395Z,54.15
2018-10-19T17:19:06.982Z,56.08
2018-10-19T17:24:36.294Z,55.88
2018-10-19T17:30:08.193Z,55.45
2018-10-19T17:35:37.477Z,54.23
2018-10-19T17:41:06.954Z,55.83
2018-10-19T17:46:41.850Z,57.03
2018-10-19T17:52:12.471Z,55.25
2018-10-19T17:57:43.911Z,64.03
2018-10-19T18:03:13.524Z,54.98
2018-10-19T18:08:43.143Z,56.25
2018-10-19T18:14:15.488Z,57.67
2018-10-19T18:19:51.210Z,59.20
2018-10-19T18:25:25.983Z,59.85
2018-10-19T18:31:04.190Z,60.45
2018-10-19T18:36:36.146Z,56.90
2018-10-19T18:42:09.312Z,59.13
2018-10-19T18:47:47.129Z,56.80
2018-10-19T18:53:20.001Z,60.25
2018-10-19T18:58:52.124Z,57.97
2018-10-19T19:04:26.352Z,60.83
2018-10-19T19:10:02.315Z,67.78
2018-10-19T19:15:40.355Z,63.95
2018-10-19T19:21:14.421Z,70.10
2018-10-19T19:26:46.687Z,64.05
2018-10-19T19:32:18.477Z,67.22
2018-10-19T19:37:49.459Z,64.00
2018-10-19T19:43:19.855Z,59.20
2018-10-19T19:48:55.002Z,62.95
2018-10-19T19:54:24.645Z,65.57
2018-10-19T19:59:59.672Z,66.77
2018-10-19T20:05:29.686Z,62.80
2018-10-19T20:10:59.383Z,66.75
2018-10-19T20:16:28.945Z,67.50
2018-10-19T20:21:59.306Z,65.57
2018-10-19T20:27:28.882Z,64.70
2018-10-19T20:32:58.236Z,65.22
2018-10-19T20:38:30.393Z,66.00
2018-10-19T20:44:02.141Z,63.02
2018-10-19T20:49:31.494Z,62.73
2018-10-19T20:55:01.307Z,60.08
2018-10-19T21:00:30.990Z,64.97
2018-10-19T21:06:00.353Z,60.08
2018-10-19T21:11:31.020Z,75.75
2018-10-19T21:17:01.498Z,63.78
2018-10-19T21:22:31.642Z,64.30
2018-10-19T21:28:01.324Z,67.25
2018-10-19T21:33:31.077Z,67.03
2018-10-19T21:39:01.792Z,61.48
2018-10-19T21:44:31.830Z,59.90
2018-10-19T21:50:03.379Z,63.50
2018-10-19T21:55:34.364Z,58.95
2018-10-19T22:01:04.488Z,62.45
2018-10-19T22:06:34.191Z,60.58
2018-10-19T22:12:04.931Z,60.20
2018-10-19T22:17:34.735Z,58.02
2018-10-19T22:23:06.196Z,56.23
2018-10-19T22:28:36.963Z,54.18
2018-10-19T22:34:07.557Z,55.30
2018-10-19T22:39:41.537Z,57.58
2018-10-19T22:45:11.614Z,55.58
2018-10-19T22:50:43.759Z,57.27
2018-10-19T22:56:13.609Z,57.88
2018-10-19T23:01:43.141Z,55.92
2018-10-19T23:07:13.579Z,56.92
2018-10-19T23:12:43.120Z,56.05
2018-10-19T23:18:14.942Z,53.20
2018-10-19T23:23:44.649Z,52.67
2018-10-19T23:29:15.299Z,53.20
2018-10-19T23:34:44.604Z,53.73
2018-10-19T23:40:15.096Z,53.60
2018-10-19T23:45:44.577Z,51.33
2018-10-19T23:51:14.005Z,49.80
2018-10-19T23:56:43.362Z,45.67
